createdAt,value
2022-11-27T00:00:30.308Z,6.25
2022-11-27T00:02:56.934Z,6.23
2022-11-27T00:05:23.297Z,6.25
2022-11-27T00:07:49.640Z,6.18
2022-11-27T00:10:16.182Z,6.28
2022-11-27T00:12:42.536Z,6.32
2022-11-27T00:15:11.365Z,6.19
2022-11-27T00:17:41.333Z,6.24
2022-11-27T00:20:08.210Z,6.28
2022-11-27T00:22:34.627Z,6.31
2022-11-27T00:25:00.935Z,6.32
2022-11-27T00:27:27.317Z,6.30
2022-11-27T00:29:53.621Z,6.25
2022-11-27T00:32:19.945Z,6.27
2022-11-27T00:34:46.240Z,6.25
2022-11-27T00:37:14.705Z,6.26
2022-11-27T00:39:41.106Z,6.28
2022-11-27T00:42:07.443Z,6.27
2022-11-27T00:44:34.295Z,6.25
2022-11-27T00:47:00.643Z,6.24
2022-11-27T00:49:27.154Z,6.28
2022-11-27T00:51:53.429Z,6.32
2022-11-27T00:54:22.916Z,6.30
2022-11-27T00:56:49.358Z,6.32
2022-11-27T00:59:15.654Z,6.31
2022-11-27T01:01:43.744Z,6.28
2022-11-27T01:04:15.945Z,6.32
2022-11-27T01:06:42.636Z,6.30
2022-11-27T01:09:11.573Z,6.34
2022-11-27T01:11:38.419Z,6.37
2022-11-27T01:14:12.746Z,6.39
2022-11-27T01:16:42.931Z,6.37
2022-11-27T01:19:11.215Z,6.31
2022-11-27T01:21:37.620Z,6.46
2022-11-27T01:24:04.975Z,6.42
2022-11-27T01:26:31.529Z,6.35
2022-11-27T01:28:58.890Z,6.42
2022-11-27T01:31:27.993Z,6.41
2022-11-27T01:33:56.795Z,6.40
2022-11-27T01:36:24.028Z,6.41
2022-11-27T01:38:50.725Z,6.40
2022-11-27T01:41:22.959Z,6.41
2022-11-27T01:43:52.821Z,6.41
2022-11-27T01:46:35.003Z,6.45
2022-11-27T01:49:10.577Z,6.51
2022-11-27T01:52:00.092Z,6.50
2022-11-27T01:54:32.270Z,6.55
2022-11-27T01:57:04.809Z,6.47
2022-11-27T01:59:31.377Z,6.41
2022-11-27T02:01:57.825Z,6.40
2022-11-27T02:04:24.242Z,6.45
2022-11-27T02:06:50.585Z,6.52
2022-11-27T02:09:17.107Z,6.43
2022-11-27T02:11:56.050Z,6.41
2022-11-27T02:14:47.350Z,6.38
2022-11-27T02:17:24.430Z,6.35
2022-11-27T02:20:07.999Z,6.34
2022-11-27T02:22:50.276Z,6.35
2022-11-27T02:25:34.797Z,6.33
2022-11-27T02:28:24.410Z,6.33
2022-11-27T02:31:01.252Z,6.37
2022-11-27T02:33:31.038Z,6.29
2022-11-27T02:36:05.976Z,6.38
2022-11-27T02:38:44.819Z,6.35
2022-11-27T02:41:21.395Z,6.33
2022-11-27T02:43:50.703Z,6.32
2022-11-27T02:46:18.959Z,6.33
2022-11-27T02:49:04.677Z,6.35
2022-11-27T02:51:52.140Z,6.31
2022-11-27T02:54:25.037Z,6.35
2022-11-27T02:56:52.595Z,6.51
2022-11-27T02:59:21.761Z,6.44
2022-11-27T03:01:55.322Z,6.38
2022-11-27T03:04:29.861Z,6.40
2022-11-27T03:07:00.117Z,6.45
2022-11-27T03:09:42.419Z,6.43
2022-11-27T03:12:11.215Z,6.45
2022-11-27T03:14:40.415Z,6.33
2022-11-27T03:17:28.166Z,6.24
2022-11-27T03:20:23.223Z,6.16
2022-11-27T03:22:49.786Z,6.18
2022-11-27T03:25:16.481Z,6.17
2022-11-27T03:27:48.663Z,6.11
2022-11-27T03:30:15.142Z,6.04
2022-11-27T03:32:41.718Z,6.04
2022-11-27T03:35:11.633Z,5.95
2022-11-27T03:37:38.245Z,5.94
2022-11-27T03:40:06.526Z,5.99
2022-11-27T03:42:58.295Z,5.94
2022-11-27T03:45:45.650Z,5.90
2022-11-27T03:48:43.297Z,5.81
2022-11-27T03:51:37.317Z,5.77
2022-11-27T03:54:23.682Z,5.69
2022-11-27T03:57:01.484Z,5.68
2022-11-27T03:59:37.121Z,5.62
2022-11-27T04:02:03.583Z,5.55
2022-11-27T04:04:30.034Z,5.58
2022-11-27T04:06:56.420Z,5.48
2022-11-27T04:09:22.962Z,5.45
2022-11-27T04:11:49.261Z,5.43
2022-11-27T04:14:15.537Z,5.44
2022-11-27T04:16:42.062Z,5.45
2022-11-27T04:19:09.498Z,5.42
2022-11-27T04:21:35.851Z,5.54
2022-11-27T04:24:02.168Z,5.52
2022-11-27T04:26:28.489Z,5.46
2022-11-27T04:28:54.782Z,5.44
2022-11-27T04:31:21.203Z,5.35
2022-11-27T04:33:47.599Z,5.22
2022-11-27T04:36:13.990Z,5.03
2022-11-27T04:38:40.346Z,4.95
2022-11-27T04:41:06.676Z,4.90
2022-11-27T04:43:33.013Z,4.88
2022-11-27T04:45:59.378Z,4.79
2022-11-27T04:48:25.746Z,4.73
2022-11-27T04:50:55.740Z,4.54
2022-11-27T04:53:22.011Z,4.42
2022-11-27T04:55:48.306Z,4.36
2022-11-27T04:58:14.607Z,4.19
2022-11-27T05:00:40.944Z,4.15
2022-11-27T05:03:07.952Z,4.07
2022-11-27T05:05:34.328Z,3.91
2022-11-27T05:08:00.744Z,3.91
2022-11-27T05:10:27.077Z,3.84
2022-11-27T05:12:53.445Z,3.76
2022-11-27T05:15:19.818Z,3.86
2022-11-27T05:17:46.147Z,3.88
2022-11-27T05:20:12.528Z,4.05
2022-11-27T05:22:38.894Z,3.99
2022-11-27T05:25:05.579Z,3.97
2022-11-27T05:27:31.885Z,3.77
2022-11-27T05:29:58.259Z,3.63
2022-11-27T05:32:24.929Z,3.57
2022-11-27T05:34:51.290Z,3.50
2022-11-27T05:37:19.700Z,3.49
2022-11-27T05:39:46.590Z,3.40
2022-11-27T05:42:12.880Z,3.40
2022-11-27T05:44:39.562Z,3.36
2022-11-27T05:47:06.074Z,3.28
2022-11-27T05:49:32.556Z,3.10
2022-11-27T05:51:58.916Z,3.31
2022-11-27T05:54:25.253Z,3.29
2022-11-27T05:56:51.591Z,3.22
2022-11-27T05:59:17.975Z,3.25
2022-11-27T06:01:44.391Z,3.04
2022-11-27T06:04:10.907Z,3.21
2022-11-27T06:06:37.235Z,3.18
2022-11-27T06:09:07.949Z,3.24
2022-11-27T06:11:37.402Z,3.35
2022-11-27T06:14:03.793Z,3.38
2022-11-27T06:16:30.168Z,3.28
2022-11-27T06:18:56.612Z,3.33
2022-11-27T06:21:24.050Z,3.32
2022-11-27T06:23:56.707Z,3.28
2022-11-27T06:26:26.444Z,3.32
2022-11-27T06:28:54.344Z,3.39
2022-11-27T06:31:23.457Z,3.39
2022-11-27T06:33:51.387Z,3.41
2022-11-27T06:36:18.829Z,3.43
2022-11-27T06:38:45.791Z,3.47
2022-11-27T06:41:18.682Z,3.50
2022-11-27T06:43:45.458Z,3.45
2022-11-27T06:46:15.362Z,3.52
2022-11-27T06:48:43.550Z,3.52
2022-11-27T06:51:12.505Z,3.53
2022-11-27T06:53:39.011Z,3.53
2022-11-27T06:56:08.769Z,3.60
2022-11-27T06:58:36.051Z,3.58
2022-11-27T07:01:05.528Z,3.65
2022-11-27T07:03:32.088Z,3.67
2022-11-27T07:06:03.284Z,3.73
2022-11-27T07:08:30.006Z,3.74
2022-11-27T07:11:07.689Z,3.81
2022-11-27T07:13:34.135Z,3.89
2022-11-27T07:16:02.016Z,3.93
2022-11-27T07:18:29.596Z,3.91
2022-11-27T07:20:56.763Z,3.93
2022-11-27T07:23:23.254Z,3.93
2022-11-27T07:25:49.576Z,3.94
2022-11-27T07:28:18.832Z,3.96
2022-11-27T07:30:45.755Z,3.99
2022-11-27T07:33:12.068Z,3.99
2022-11-27T07:35:38.397Z,4.13
2022-11-27T07:38:04.728Z,4.20
2022-11-27T07:40:31.008Z,4.27
2022-11-27T07:42:58.526Z,4.26
2022-11-27T07:45:24.881Z,4.26
2022-11-27T07:47:51.301Z,4.29
2022-11-27T07:50:17.805Z,4.25
2022-11-27T07:52:53.307Z,4.23
2022-11-27T07:55:27.848Z,4.24
2022-11-27T07:57:58.063Z,4.30
2022-11-27T08:00:25.472Z,4.32
2022-11-27T08:02:54.778Z,4.26
2022-11-27T08:05:26.351Z,4.34
2022-11-27T08:07:59.847Z,4.45
2022-11-27T08:10:35.772Z,4.49
2022-11-27T08:13:03.805Z,4.54
2022-11-27T08:15:37.733Z,4.52
2022-11-27T08:18:04.218Z,4.65
2022-11-27T08:20:30.585Z,4.69
2022-11-27T08:23:02.506Z,4.80
2022-11-27T08:25:29.820Z,4.83
2022-11-27T08:27:56.918Z,4.82
2022-11-27T08:30:23.674Z,4.85
2022-11-27T08:32:50.194Z,4.83
2022-11-27T08:35:16.893Z,4.83
2022-11-27T08:37:43.503Z,4.82
2022-11-27T08:40:10.402Z,4.86
2022-11-27T08:42:36.898Z,4.89
2022-11-27T08:45:03.550Z,4.88
2022-11-27T08:47:33.204Z,4.87
2022-11-27T08:50:00.121Z,4.83
2022-11-27T08:52:27.489Z,4.88
2022-11-27T08:54:57.512Z,4.93
2022-11-27T08:57:24.620Z,5.01
2022-11-27T08:59:50.946Z,5.06
2022-11-27T09:02:17.446Z,5.14
2022-11-27T09:04:43.949Z,5.16
2022-11-27T09:07:14.000Z,5.20
2022-11-27T09:09:40.459Z,5.25
2022-11-27T09:12:07.164Z,5.28
2022-11-27T09:14:33.490Z,5.19
2022-11-27T09:16:59.852Z,5.24
2022-11-27T09:19:26.198Z,5.26
2022-11-27T09:21:52.473Z,5.27
2022-11-27T09:24:18.830Z,5.19
2022-11-27T09:26:45.191Z,5.16
2022-11-27T09:29:11.480Z,5.18
2022-11-27T09:31:37.833Z,5.15
2022-11-27T09:34:05.468Z,5.47
2022-11-27T09:36:31.810Z,5.15
2022-11-27T09:38:59.817Z,5.19
2022-11-27T09:41:39.244Z,5.02
2022-11-27T09:44:27.000Z,5.00
2022-11-27T09:46:54.414Z,4.97
2022-11-27T09:49:29.790Z,5.03
2022-11-27T09:52:10.287Z,5.00
2022-11-27T09:54:49.434Z,5.02
2022-11-27T09:57:25.498Z,4.98
2022-11-27T09:59:54.266Z,5.03
2022-11-27T10:02:28.693Z,5.02
2022-11-27T10:05:13.282Z,5.08
2022-11-27T10:08:13.691Z,5.21
2022-11-27T10:10:46.676Z,5.31
2022-11-27T10:13:40.541Z,5.31
2022-11-27T10:16:24.639Z,5.25
2022-11-27T10:18:58.021Z,5.27
2022-11-27T10:21:51.938Z,5.41
2022-11-27T10:24:40.124Z,5.52
2022-11-27T10:27:44.816Z,5.65
2022-11-27T10:30:20.403Z,5.78
2022-11-27T10:32:55.752Z,5.69
2022-11-27T10:35:28.904Z,5.47
2022-11-27T10:38:12.660Z,5.37
2022-11-27T10:40:45.333Z,5.23
2022-11-27T10:43:23.251Z,5.29
2022-11-27T10:46:08.257Z,5.20
2022-11-27T10:48:34.846Z,5.25
2022-11-27T10:51:01.482Z,5.35
2022-11-27T10:53:33.657Z,5.49
2022-11-27T10:56:05.941Z,5.63
2022-11-27T10:58:35.084Z,5.77
2022-11-27T11:01:07.274Z,5.93
2022-11-27T11:03:34.517Z,5.93
2022-11-27T11:06:19.923Z,5.95
2022-11-27T11:08:47.088Z,6.08
2022-11-27T11:11:13.914Z,6.38
2022-11-27T11:13:40.140Z,6.58
2022-11-27T11:16:17.534Z,6.83
2022-11-27T11:18:55.582Z,7.04
2022-11-27T11:21:48.303Z,7.26
2022-11-27T11:24:25.461Z,7.38
2022-11-27T11:26:59.095Z,7.36
2022-11-27T11:29:28.411Z,7.18
2022-11-27T11:31:56.848Z,7.38
2022-11-27T11:34:28.824Z,7.47
2022-11-27T11:36:56.105Z,7.49
2022-11-27T11:39:38.916Z,7.78
2022-11-27T11:42:10.397Z,8.04
2022-11-27T11:44:40.223Z,8.14
2022-11-27T11:47:18.227Z,8.09
2022-11-27T11:49:45.611Z,8.23
2022-11-27T11:52:30.833Z,8.21
2022-11-27T11:55:12.694Z,8.22
2022-11-27T11:57:57.940Z,8.14
2022-11-27T12:00:33.782Z,7.87
2022-11-27T12:03:04.957Z,7.79
2022-11-27T12:05:46.519Z,7.76
2022-11-27T12:08:41.162Z,7.61
2022-11-27T12:11:23.057Z,7.53
2022-11-27T12:14:14.431Z,7.45
2022-11-27T12:17:18.421Z,7.21
2022-11-27T12:20:09.346Z,7.15
2022-11-27T12:22:47.890Z,7.23
2022-11-27T12:25:43.382Z,6.89
2022-11-27T12:28:31.331Z,6.84
2022-11-27T12:31:21.747Z,6.86
2022-11-27T12:34:02.350Z,6.90
2022-11-27T12:36:35.384Z,6.96
2022-11-27T12:39:18.074Z,7.06
2022-11-27T12:41:47.103Z,7.01
2022-11-27T12:44:39.803Z,6.99
2022-11-27T12:47:38.918Z,6.87
2022-11-27T12:50:17.427Z,7.02
2022-11-27T12:52:49.910Z,7.03
2022-11-27T12:55:22.270Z,7.14
2022-11-27T12:57:56.698Z,7.13
2022-11-27T13:00:25.871Z,7.17
2022-11-27T13:03:19.969Z,7.22
2022-11-27T13:05:51.743Z,7.31
2022-11-27T13:08:28.722Z,7.41
2022-11-27T13:11:03.984Z,7.45
2022-11-27T13:13:40.091Z,7.49
2022-11-27T13:16:15.333Z,7.56
2022-11-27T13:18:49.297Z,7.62
2022-11-27T13:21:20.352Z,7.50
2022-11-27T13:23:46.743Z,7.55
2022-11-27T13:26:23.236Z,7.56
2022-11-27T13:28:56.485Z,7.44
2022-11-27T13:31:29.769Z,7.37
2022-11-27T13:34:02.834Z,7.37
2022-11-27T13:36:37.197Z,7.39
2022-11-27T13:39:03.714Z,7.36
2022-11-27T13:41:32.695Z,7.39
2022-11-27T13:43:59.348Z,7.32
2022-11-27T13:46:31.624Z,7.33
2022-11-27T13:49:03.383Z,7.30
2022-11-27T13:51:36.429Z,7.21
2022-11-27T13:54:25.895Z,7.17
2022-11-27T13:56:55.217Z,7.06
2022-11-27T13:59:24.827Z,6.97
2022-11-27T14:01:59.937Z,6.91
2022-11-27T14:04:28.459Z,6.81
2022-11-27T14:07:03.508Z,6.71
2022-11-27T14:09:43.923Z,6.67
2022-11-27T14:12:15.791Z,6.62
2022-11-27T14:14:43.956Z,6.47
2022-11-27T14:17:32.987Z,6.51
2022-11-27T14:20:04.694Z,6.45
2022-11-27T14:23:12.449Z,6.25
2022-11-27T14:25:40.233Z,6.11
2022-11-27T14:28:27.211Z,6.02
2022-11-27T14:30:59.922Z,5.95
2022-11-27T14:33:31.243Z,5.93
2022-11-27T14:36:03.064Z,5.90
2022-11-27T14:38:31.530Z,5.90
2022-11-27T14:41:15.934Z,5.94
2022-11-27T14:43:42.285Z,5.89
2022-11-27T14:46:16.086Z,5.89
2022-11-27T14:48:44.718Z,5.91
2022-11-27T14:51:21.622Z,5.92
2022-11-27T14:53:50.637Z,5.99
2022-11-27T14:56:17.738Z,6.01
2022-11-27T14:58:55.025Z,6.03
2022-11-27T15:01:26.177Z,6.08
2022-11-27T15:04:00.216Z,6.01
2022-11-27T15:06:31.281Z,6.09
2022-11-27T15:09:16.223Z,6.09
2022-11-27T15:11:55.857Z,5.98
2022-11-27T15:14:25.392Z,5.94
2022-11-27T15:16:53.139Z,5.86
2022-11-27T15:19:30.870Z,5.82
2022-11-27T15:21:57.749Z,5.85
2022-11-27T15:24:35.816Z,5.88
2022-11-27T15:27:14.468Z,5.88
2022-11-27T15:29:45.978Z,5.79
2022-11-27T15:32:23.496Z,5.80
2022-11-27T15:34:51.788Z,5.76
2022-11-27T15:37:30.894Z,5.72
2022-11-27T15:39:58.681Z,5.67
2022-11-27T15:42:28.449Z,5.69
2022-11-27T15:44:56.717Z,5.73
2022-11-27T15:47:33.633Z,5.68
2022-11-27T15:50:00.451Z,5.63
2022-11-27T15:52:27.308Z,5.57
2022-11-27T15:54:55.242Z,5.55
2022-11-27T15:57:21.521Z,5.60
2022-11-27T15:59:47.935Z,5.67
2022-11-27T16:02:18.278Z,5.62
2022-11-27T16:04:44.918Z,5.61
2022-11-27T16:07:11.357Z,5.58
2022-11-27T16:09:39.571Z,5.64
2022-11-27T16:12:06.391Z,5.57
2022-11-27T16:14:32.826Z,5.80
2022-11-27T16:17:00.430Z,5.72
2022-11-27T16:19:26.981Z,5.66
2022-11-27T16:21:53.322Z,5.65
2022-11-27T16:24:19.632Z,5.69
2022-11-27T16:26:45.938Z,5.62
2022-11-27T16:29:12.339Z,5.59
2022-11-27T16:31:39.446Z,5.59
2022-11-27T16:34:06.522Z,5.62
2022-11-27T16:36:35.603Z,5.72
2022-11-27T16:39:01.884Z,5.64
2022-11-27T16:41:28.240Z,5.56
2022-11-27T16:43:56.700Z,5.50
2022-11-27T16:46:28.919Z,5.47
2022-11-27T16:48:57.553Z,5.50
2022-11-27T16:51:26.447Z,5.49
2022-11-27T16:53:54.430Z,5.50
2022-11-27T16:56:25.992Z,5.50
2022-11-27T16:58:57.973Z,5.74
2022-11-27T17:01:34.185Z,5.89
2022-11-27T17:04:03.301Z,5.89
2022-11-27T17:06:32.387Z,5.91
2022-11-27T17:09:00.345Z,5.92
2022-11-27T17:11:29.617Z,5.82
2022-11-27T17:13:58.864Z,5.84
2022-11-27T17:16:25.788Z,5.88
2022-11-27T17:18:52.179Z,5.77
2022-11-27T17:21:24.878Z,6.00
2022-11-27T17:23:51.789Z,5.82
2022-11-27T17:26:21.629Z,5.95
2022-11-27T17:28:48.053Z,6.00
2022-11-27T17:31:19.704Z,5.91
2022-11-27T17:33:47.107Z,5.85
2022-11-27T17:36:14.471Z,5.80
2022-11-27T17:38:40.867Z,5.84
2022-11-27T17:41:09.908Z,5.79
2022-11-27T17:43:37.920Z,5.79
2022-11-27T17:46:15.859Z,5.90
2022-11-27T17:48:42.863Z,6.01
2022-11-27T17:51:09.568Z,5.89
2022-11-27T17:53:35.888Z,5.87
2022-11-27T17:56:07.066Z,5.85
2022-11-27T17:58:33.980Z,5.86
2022-11-27T18:01:01.085Z,5.91
2022-11-27T18:03:28.552Z,6.08
2022-11-27T18:05:55.082Z,6.06
2022-11-27T18:08:21.377Z,6.02
2022-11-27T18:10:47.985Z,6.03
2022-11-27T18:13:14.437Z,5.92
2022-11-27T18:15:42.582Z,5.88
2022-11-27T18:18:09.012Z,5.88
2022-11-27T18:20:35.878Z,5.90
2022-11-27T18:23:02.246Z,5.99
2022-11-27T18:25:28.662Z,5.99
2022-11-27T18:27:54.949Z,6.01
2022-11-27T18:30:21.242Z,5.93
2022-11-27T18:32:47.557Z,5.95
2022-11-27T18:35:13.865Z,5.92
2022-11-27T18:37:40.195Z,6.01
2022-11-27T18:40:07.997Z,5.86
2022-11-27T18:42:34.397Z,6.01
2022-11-27T18:45:01.201Z,6.06
2022-11-27T18:47:28.125Z,6.08
2022-11-27T18:49:55.723Z,5.95
2022-11-27T18:52:22.125Z,6.09
2022-11-27T18:54:48.478Z,6.04
2022-11-27T18:57:14.899Z,6.03
2022-11-27T18:59:43.708Z,6.14
2022-11-27T19:02:10.951Z,6.05
2022-11-27T19:04:37.550Z,6.10
2022-11-27T19:07:03.961Z,6.08
2022-11-27T19:09:30.329Z,6.04
2022-11-27T19:11:56.617Z,6.08
2022-11-27T19:14:22.939Z,6.19
2022-11-27T19:16:50.598Z,6.12
2022-11-27T19:22:07.924Z,6.04
2022-11-27T19:24:34.475Z,6.04
2022-11-27T19:27:00.817Z,6.07
2022-11-27T19:29:27.131Z,6.01
2022-11-27T19:31:55.909Z,6.04
2022-11-27T19:34:22.738Z,6.02
2022-11-27T19:36:49.059Z,6.05
2022-11-27T19:39:15.692Z,6.07
2022-11-27T19:41:43.260Z,6.08
2022-11-27T19:44:11.884Z,6.09
2022-11-27T19:46:38.644Z,6.12
2022-11-27T19:49:12.711Z,6.17
2022-11-27T19:51:40.406Z,6.15
2022-11-27T19:54:10.266Z,6.19
2022-11-27T19:56:38.656Z,6.18
2022-11-27T19:59:06.016Z,6.13
2022-11-27T20:01:32.601Z,6.10
2022-11-27T20:03:59.806Z,6.12
2022-11-27T20:06:27.025Z,6.09
2022-11-27T20:09:00.719Z,6.04
2022-11-27T20:11:34.235Z,6.05
2022-11-27T20:14:01.261Z,6.03
2022-11-27T20:16:27.733Z,6.08
2022-11-27T20:18:54.586Z,5.98
2022-11-27T20:21:24.138Z,5.97
2022-11-27T20:23:52.415Z,5.92
2022-11-27T20:26:22.058Z,5.98
2022-11-27T20:28:49.705Z,5.97
2022-11-27T20:31:24.961Z,6.04
2022-11-27T20:33:52.838Z,5.98
2022-11-27T20:36:21.013Z,5.99
2022-11-27T20:38:47.503Z,5.88
2022-11-27T20:41:17.402Z,5.91
2022-11-27T20:43:44.157Z,5.95
2022-11-27T20:46:14.667Z,5.91
2022-11-27T20:48:41.979Z,5.90
2022-11-27T20:51:15.154Z,5.86
2022-11-27T20:53:43.998Z,5.83
2022-11-27T20:56:13.787Z,5.81
2022-11-27T20:58:42.042Z,5.78
2022-11-27T21:01:26.072Z,5.74
2022-11-27T21:03:54.209Z,5.81
2022-11-27T21:06:24.832Z,5.74
2022-11-27T21:08:51.641Z,5.74
2022-11-27T21:11:27.461Z,5.80
2022-11-27T21:13:59.823Z,5.80
2022-11-27T21:16:29.024Z,5.78
2022-11-27T21:18:58.812Z,5.77
2022-11-27T21:21:26.458Z,5.72
2022-11-27T21:23:54.047Z,5.70
2022-11-27T21:26:20.425Z,5.70
2022-11-27T21:28:47.437Z,5.77
2022-11-27T21:31:19.308Z,5.70
2022-11-27T21:33:50.893Z,5.65
2022-11-27T21:36:18.618Z,5.63
2022-11-27T21:38:44.990Z,5.63
2022-11-27T21:41:13.627Z,5.68
2022-11-27T21:43:41.264Z,5.68
2022-11-27T21:46:09.072Z,5.62
2022-11-27T21:48:35.814Z,5.60
2022-11-27T21:51:03.255Z,5.55
2022-11-27T21:53:30.678Z,5.50
2022-11-27T21:55:57.391Z,5.46
2022-11-27T21:58:24.184Z,5.52
2022-11-27T22:00:50.734Z,5.47
2022-11-27T22:03:17.222Z,5.45
2022-11-27T22:05:43.570Z,5.47
2022-11-27T22:08:09.895Z,5.46
2022-11-27T22:10:39.544Z,5.43
2022-11-27T22:13:05.834Z,5.54
2022-11-27T22:15:35.310Z,5.43
2022-11-27T22:18:01.597Z,5.40
2022-11-27T22:20:27.941Z,5.31
2022-11-27T22:22:54.269Z,5.24
2022-11-27T22:25:20.580Z,5.30
2022-11-27T22:27:46.869Z,5.30
2022-11-27T22:30:13.322Z,5.27
2022-11-27T22:32:39.653Z,5.33
2022-11-27T22:35:06.225Z,5.38
2022-11-27T22:37:32.609Z,5.38
2022-11-27T22:39:59.313Z,5.35
2022-11-27T22:42:25.657Z,5.37
2022-11-27T22:44:51.953Z,5.35
2022-11-27T22:47:18.297Z,5.27
2022-11-27T22:49:44.622Z,5.21
2022-11-27T22:52:10.905Z,5.25
2022-11-27T22:54:38.034Z,5.17
2022-11-27T22:57:04.323Z,5.09
2022-11-27T22:59:32.608Z,5.02
2022-11-27T23:01:59.627Z,4.93
2022-11-27T23:04:26.069Z,4.90
2022-11-27T23:06:52.391Z,4.92
2022-11-27T23:09:18.869Z,4.89
2022-11-27T23:11:45.547Z,4.98
2022-11-27T23:14:11.987Z,4.98
2022-11-27T23:16:38.332Z,4.89
2022-11-27T23:19:04.765Z,4.98
2022-11-27T23:21:32.708Z,4.97
2022-11-27T23:23:58.996Z,4.98
2022-11-27T23:26:25.406Z,4.99
2022-11-27T23:28:53.560Z,4.82
2022-11-27T23:31:30.456Z,4.89
2022-11-27T23:33:58.972Z,4.74
2022-11-27T23:36:25.684Z,4.67
2022-11-27T23:38:52.004Z,4.69
2022-11-27T23:41:25.209Z,4.69
2022-11-27T23:43:52.932Z,4.85
2022-11-27T23:46:22.051Z,4.77
2022-11-27T23:48:48.592Z,4.78
2022-11-27T23:51:20.298Z,4.86
2022-11-27T23:53:47.298Z,4.90
2022-11-27T23:56:16.433Z,4.87
2022-11-27T23:58:47.020Z,4.88
